sensor_id;sensor_type;location;lat;lon;timestamp;pressure;altitude;pressure_sealevel;temperature;humidity
3142;BME280;1581;51.568;6.998;2022-07-06T00:01:23;101816.78;;;15.84;100.00
3142;BME280;1581;51.568;6.998;2022-07-06T00:03:51;101819.00;;;15.26;100.00
3142;BME280;1581;51.568;6.998;2022-07-06T00:06:18;101816.81;;;15.36;100.00
3142;BME280;1581;51.568;6.998;2022-07-06T00:08:46;101818.59;;;15.08;100.00
3142;BME280;1581;51.568;6.998;2022-07-06T00:11:15;101808.28;;;15.11;100.00
3142;BME280;1581;51.568;6.998;2022-07-06T00:13:43;101812.72;;;15.19;100.00
3142;BME280;1581;51.568;6.998;2022-07-06T00:16:10;101814.00;;;15.02;100.00
3142;BME280;1581;51.568;6.998;2022-07-06T00:18:38;101810.53;;;15.08;100.00
3142;BME280;1581;51.568;6.998;2022-07-06T00:21:06;101814.31;;;14.92;100.00
3142;BME280;1581;51.568;6.998;2022-07-06T00:23:33;101808.00;;;15.00;100.00
3142;BME280;1581;51.568;6.998;2022-07-06T00:26:01;101812.38;;;15.07;100.00
3142;BME280;1581;51.568;6.998;2022-07-06T00:28:30;101815.78;;;14.95;100.00
3142;BME280;1581;51.568;6.998;2022-07-06T00:30:58;101817.06;;;14.99;100.00
3142;BME280;1581;51.568;6.998;2022-07-06T00:33:26;101821.75;;;14.76;100.00
3142;BME280;1581;51.568;6.998;2022-07-06T00:35:53;101814.09;;;14.94;100.00
3142;BME280;1581;51.568;6.998;2022-07-06T00:38:21;101814.88;;;14.88;100.00
3142;BME280;1581;51.568;6.998;2022-07-06T00:40:49;101806.09;;;14.79;100.00
3142;BME280;1581;51.568;6.998;2022-07-06T00:43:16;101812.63;;;14.91;100.00
3142;BME280;1581;51.568;6.998;2022-07-06T00:45:45;101812.38;;;15.07;100.00
3142;BME280;1581;51.568;6.998;2022-07-06T00:48:13;101815.19;;;14.99;100.00
3142;BME280;1581;51.568;6.998;2022-07-06T00:50:41;101817.19;;;14.91;100.00
3142;BME280;1581;51.568;6.998;2022-07-06T00:53:08;101812.44;;;14.93;100.00
3142;BME280;1581;51.568;6.998;2022-07-06T00:55:38;101813.03;;;15.09;100.00
3142;BME280;1581;51.568;6.998;2022-07-06T00:58:08;101818.72;;;15.00;100.00
3142;BME280;1581;51.568;6.998;2022-07-06T01:00:36;101814.19;;;15.21;100.00
3142;BME280;1581;51.568;6.998;2022-07-06T01:03:05;101813.44;;;15.06;100.00
3142;BME280;1581;51.568;6.998;2022-07-06T01:05:33;101814.69;;;15.10;100.00
3142;BME280;1581;51.568;6.998;2022-07-06T01:08:01;101820.69;;;15.12;100.00
3142;BME280;1581;51.568;6.998;2022-07-06T01:10:29;101819.84;;;15.26;100.00
3142;BME280;1581;51.568;6.998;2022-07-06T01:12:57;101811.69;;;14.99;100.00
3142;BME280;1581;51.568;6.998;2022-07-06T01:15:25;101815.31;;;14.91;100.00
3142;BME280;1581;51.568;6.998;2022-07-06T01:17:53;101814.16;;;14.79;100.00
3142;BME280;1581;51.568;6.998;2022-07-06T01:20:24;101817.34;;;15.25;100.00
3142;BME280;1581;51.568;6.998;2022-07-06T01:22:53;101815.47;;;15.04;100.00
3142;BME280;1581;51.568;6.998;2022-07-06T01:25:21;101815.03;;;14.65;100.00
3142;BME280;1581;51.568;6.998;2022-07-06T01:27:49;101812.53;;;14.64;100.00
3142;BME280;1581;51.568;6.998;2022-07-06T01:30:19;101822.59;;;14.41;100.00
3142;BME280;1581;51.568;6.998;2022-07-06T01:32:47;101810.63;;;14.58;100.00
3142;BME280;1581;51.568;6.998;2022-07-06T01:35:15;101809.59;;;14.59;100.00
3142;BME280;1581;51.568;6.998;2022-07-06T01:37:44;101811.28;;;14.46;100.00
3142;BME280;1581;51.568;6.998;2022-07-06T01:40:12;101806.38;;;14.49;100.00
3142;BME280;1581;51.568;6.998;2022-07-06T01:42:40;101798.69;;;14.46;100.00
3142;BME280;1581;51.568;6.998;2022-07-06T01:45:09;101806.84;;;14.53;100.00
3142;BME280;1581;51.568;6.998;2022-07-06T01:47:37;101802.56;;;14.58;100.00
3142;BME280;1581;51.568;6.998;2022-07-06T01:50:08;101804.91;;;14.47;100.00
3142;BME280;1581;51.568;6.998;2022-07-06T01:52:36;101808.00;;;14.15;100.00
3142;BME280;1581;51.568;6.998;2022-07-06T01:55:06;101804.41;;;14.22;100.00
3142;BME280;1581;51.568;6.998;2022-07-06T01:57:34;101806.31;;;14.28;100.00
3142;BME280;1581;51.568;6.998;2022-07-06T02:00:02;101805.00;;;14.24;100.00
3142;BME280;1581;51.568;6.998;2022-07-06T02:02:31;101803.63;;;13.99;100.00
3142;BME280;1581;51.568;6.998;2022-07-06T02:04:58;101798.97;;;13.93;100.00
3142;BME280;1581;51.568;6.998;2022-07-06T02:07:26;101802.22;;;13.74;100.00
3142;BME280;1581;51.568;6.998;2022-07-06T02:09:53;101802.06;;;13.90;100.00
3142;BME280;1581;51.568;6.998;2022-07-06T02:12:22;101799.63;;;13.81;100.00
3142;BME280;1581;51.568;6.998;2022-07-06T02:14:50;101797.50;;;13.76;100.00
3142;BME280;1581;51.568;6.998;2022-07-06T02:17:17;101799.44;;;13.68;100.00
3142;BME280;1581;51.568;6.998;2022-07-06T02:19:45;101801.81;;;13.49;100.00
3142;BME280;1581;51.568;6.998;2022-07-06T02:22:12;101795.72;;;13.55;100.00
3142;BME280;1581;51.568;6.998;2022-07-06T02:24:40;101797.47;;;13.48;100.00
3142;BME280;1581;51.568;6.998;2022-07-06T02:27:07;101796.34;;;13.42;100.00
3142;BME280;1581;51.568;6.998;2022-07-06T02:29:36;101794.06;;;13.54;100.00
3142;BME280;1581;51.568;6.998;2022-07-06T02:32:04;101785.03;;;13.18;100.00
3142;BME280;1581;51.568;6.998;2022-07-06T02:34:32;101787.09;;;13.30;100.00
3142;BME280;1581;51.568;6.998;2022-07-06T02:36:59;101788.16;;;13.21;100.00
3142;BME280;1581;51.568;6.998;2022-07-06T02:39:27;101790.31;;;13.26;100.00
3142;BME280;1581;51.568;6.998;2022-07-06T02:41:55;101789.44;;;13.11;100.00
3142;BME280;1581;51.568;6.998;2022-07-06T02:44:22;101790.22;;;13.34;100.00
3142;BME280;1581;51.568;6.998;2022-07-06T02:46:51;101790.75;;;13.29;100.00
3142;BME280;1581;51.568;6.998;2022-07-06T02:49:19;101788.41;;;13.34;100.00
3142;BME280;1581;51.568;6.998;2022-07-06T02:51:46;101793.88;;;13.18;100.00
3142;BME280;1581;51.568;6.998;2022-07-06T02:54:14;101795.31;;;13.29;100.00
3142;BME280;1581;51.568;6.998;2022-07-06T02:56:41;101796.13;;;13.29;100.00
3142;BME280;1581;51.568;6.998;2022-07-06T02:59:10;101804.31;;;13.13;100.00
3142;BME280;1581;51.568;6.998;2022-07-06T03:01:38;101792.78;;;13.50;100.00
3142;BME280;1581;51.568;6.998;2022-07-06T03:04:07;101799.22;;;13.41;100.00
3142;BME280;1581;51.568;6.998;2022-07-06T03:06:35;101797.22;;;13.57;100.00
3142;BME280;1581;51.568;6.998;2022-07-06T03:09:03;101793.91;;;13.33;100.00
3142;BME280;1581;51.568;6.998;2022-07-06T03:11:31;101797.56;;;13.40;100.00
3142;BME280;1581;51.568;6.998;2022-07-06T03:14:02;101798.41;;;13.18;100.00
3142;BME280;1581;51.568;6.998;2022-07-06T03:16:30;101812.88;;;13.46;100.00
3142;BME280;1581;51.568;6.998;2022-07-06T03:18:57;101811.59;;;13.42;100.00
3142;BME280;1581;51.568;6.998;2022-07-06T03:21:26;101823.44;;;13.47;100.00
3142;BME280;1581;51.568;6.998;2022-07-06T03:23:54;101824.91;;;13.50;100.00
3142;BME280;1581;51.568;6.998;2022-07-06T03:26:21;101821.59;;;13.25;100.00
3142;BME280;1581;51.568;6.998;2022-07-06T03:28:49;101819.47;;;13.58;100.00
3142;BME280;1581;51.568;6.998;2022-07-06T03:31:17;101817.72;;;13.65;100.00
3142;BME280;1581;51.568;6.998;2022-07-06T03:33:44;101813.97;;;13.37;100.00
3142;BME280;1581;51.568;6.998;2022-07-06T03:36:12;101819.63;;;13.19;100.00
3142;BME280;1581;51.568;6.998;2022-07-06T03:38:41;101809.69;;;13.28;100.00
3142;BME280;1581;51.568;6.998;2022-07-06T03:41:08;101808.09;;;13.56;100.00
3142;BME280;1581;51.568;6.998;2022-07-06T03:43:36;101805.63;;;13.69;100.00
3142;BME280;1581;51.568;6.998;2022-07-06T03:46:04;101803.53;;;13.78;100.00
3142;BME280;1581;51.568;6.998;2022-07-06T03:48:32;101805.34;;;13.92;100.00
3142;BME280;1581;51.568;6.998;2022-07-06T03:50:59;101806.66;;;13.96;100.00
3142;BME280;1581;51.568;6.998;2022-07-06T03:53:27;101794.75;;;14.13;100.00
3142;BME280;1581;51.568;6.998;2022-07-06T03:55:56;101805.19;;;13.94;100.00
3142;BME280;1581;51.568;6.998;2022-07-06T03:58:41;101811.09;;;13.89;100.00
3142;BME280;1581;51.568;6.998;2022-07-06T04:01:09;101810.84;;;14.13;100.00
3142;BME280;1581;51.568;6.998;2022-07-06T04:03:36;101817.88;;;14.14;100.00
3142;BME280;1581;51.568;6.998;2022-07-06T04:06:05;101819.25;;;14.10;100.00
3142;BME280;1581;51.568;6.998;2022-07-06T04:08:32;101827.59;;;14.15;100.00
3142;BME280;1581;51.568;6.998;2022-07-06T04:11:01;101816.38;;;14.41;100.00
3142;BME280;1581;51.568;6.998;2022-07-06T04:13:29;101824.16;;;14.36;100.00
3142;BME280;1581;51.568;6.998;2022-07-06T04:15:57;101819.81;;;14.35;100.00
3142;BME280;1581;51.568;6.998;2022-07-06T04:18:24;101823.22;;;14.43;100.00
3142;BME280;1581;51.568;6.998;2022-07-06T04:20:52;101825.09;;;14.28;100.00
3142;BME280;1581;51.568;6.998;2022-07-06T04:23:20;101825.84;;;14.37;100.00
3142;BME280;1581;51.568;6.998;2022-07-06T04:25:47;101821.19;;;14.45;100.00
3142;BME280;1581;51.568;6.998;2022-07-06T04:28:16;101821.03;;;14.32;100.00
3142;BME280;1581;51.568;6.998;2022-07-06T04:30:44;101827.19;;;14.47;100.00
3142;BME280;1581;51.568;6.998;2022-07-06T04:33:11;101825.53;;;14.46;100.00
3142;BME280;1581;51.568;6.998;2022-07-06T04:35:39;101828.28;;;14.53;100.00
3142;BME280;1581;51.568;6.998;2022-07-06T04:38:07;101826.38;;;14.47;100.00
3142;BME280;1581;51.568;6.998;2022-07-06T04:40:34;101825.63;;;14.38;100.00
3142;BME280;1581;51.568;6.998;2022-07-06T04:43:02;101825.84;;;14.58;100.00
3142;BME280;1581;51.568;6.998;2022-07-06T04:45:31;101821.25;;;14.87;100.00
3142;BME280;1581;51.568;6.998;2022-07-06T04:47:59;101822.38;;;15.13;100.00
3142;BME280;1581;51.568;6.998;2022-07-06T04:50:27;101827.56;;;15.36;100.00
3142;BME280;1581;51.568;6.998;2022-07-06T04:52:54;101818.31;;;15.03;100.00
3142;BME280;1581;51.568;6.998;2022-07-06T04:55:22;101823.69;;;15.03;100.00
3142;BME280;1581;51.568;6.998;2022-07-06T04:57:50;101820.13;;;14.96;100.00
3142;BME280;1581;51.568;6.998;2022-07-06T05:00:18;101826.59;;;14.66;100.00
3142;BME280;1581;51.568;6.998;2022-07-06T05:02:48;101817.03;;;14.43;100.00
3142;BME280;1581;51.568;6.998;2022-07-06T05:05:15;101809.75;;;14.37;100.00
3142;BME280;1581;51.568;6.998;2022-07-06T05:07:43;101812.00;;;14.54;100.00
3142;BME280;1581;51.568;6.998;2022-07-06T05:10:12;101813.81;;;14.68;100.00
3142;BME280;1581;51.568;6.998;2022-07-06T05:12:40;101818.09;;;14.63;100.00
3142;BME280;1581;51.568;6.998;2022-07-06T05:15:09;101812.81;;;14.69;100.00
3142;BME280;1581;51.568;6.998;2022-07-06T05:17:37;101816.88;;;14.65;100.00
3142;BME280;1581;51.568;6.998;2022-07-06T05:20:07;101825.41;;;14.54;100.00
3142;BME280;1581;51.568;6.998;2022-07-06T05:22:35;101817.47;;;14.46;100.00
3142;BME280;1581;51.568;6.998;2022-07-06T05:25:03;101824.59;;;15.10;100.00
3142;BME280;1581;51.568;6.998;2022-07-06T05:27:30;101829.00;;;15.32;100.00
3142;BME280;1581;51.568;6.998;2022-07-06T05:29:58;101838.94;;;15.58;100.00
3142;BME280;1581;51.568;6.998;2022-07-06T05:32:26;101842.44;;;15.86;100.00
3142;BME280;1581;51.568;6.998;2022-07-06T05:34:53;101835.25;;;15.93;100.00
3142;BME280;1581;51.568;6.998;2022-07-06T05:37:22;101835.63;;;15.84;100.00
3142;BME280;1581;51.568;6.998;2022-07-06T05:39:50;101840.50;;;16.01;100.00
3142;BME280;1581;51.568;6.998;2022-07-06T05:42:17;101839.69;;;16.35;100.00
3142;BME280;1581;51.568;6.998;2022-07-06T05:44:45;101840.19;;;16.51;100.00
3142;BME280;1581;51.568;6.998;2022-07-06T05:47:12;101845.09;;;16.47;100.00
3142;BME280;1581;51.568;6.998;2022-07-06T05:49:57;101851.41;;;16.61;100.00
3142;BME280;1581;51.568;6.998;2022-07-06T05:52:43;101847.97;;;16.86;100.00
3142;BME280;1581;51.568;6.998;2022-07-06T05:55:12;101847.38;;;16.91;100.00
3142;BME280;1581;51.568;6.998;2022-07-06T05:57:40;101858.16;;;17.04;100.00
3142;BME280;1581;51.568;6.998;2022-07-06T06:00:09;101862.13;;;17.08;100.00
3142;BME280;1581;51.568;6.998;2022-07-06T06:02:38;101865.22;;;17.05;100.00
3142;BME280;1581;51.568;6.998;2022-07-06T06:05:08;101867.25;;;17.03;100.00
3142;BME280;1581;51.568;6.998;2022-07-06T06:07:37;101861.44;;;16.93;100.00
3142;BME280;1581;51.568;6.998;2022-07-06T06:10:09;101870.38;;;17.00;100.00
3142;BME280;1581;51.568;6.998;2022-07-06T06:12:38;101872.16;;;17.46;100.00
3142;BME280;1581;51.568;6.998;2022-07-06T06:15:07;101871.56;;;17.83;97.81
3142;BME280;1581;51.568;6.998;2022-07-06T06:17:36;101869.03;;;18.07;96.38
3142;BME280;1581;51.568;6.998;2022-07-06T06:20:06;101872.16;;;17.39;97.72
3142;BME280;1581;51.568;6.998;2022-07-06T06:22:45;101876.72;;;17.58;97.08
3142;BME280;1581;51.568;6.998;2022-07-06T06:25:16;101876.94;;;17.63;97.47
3142;BME280;1581;51.568;6.998;2022-07-06T06:27:44;101872.81;;;17.80;96.85
3142;BME280;1581;51.568;6.998;2022-07-06T06:30:13;101876.50;;;18.18;94.75
3142;BME280;1581;51.568;6.998;2022-07-06T06:32:40;101876.50;;;18.12;94.60
3142;BME280;1581;51.568;6.998;2022-07-06T06:35:08;101872.34;;;18.09;95.37
3142;BME280;1581;51.568;6.998;2022-07-06T06:37:36;101877.34;;;17.54;95.09
3142;BME280;1581;51.568;6.998;2022-07-06T06:40:06;101885.84;;;18.09;95.08
3142;BME280;1581;51.568;6.998;2022-07-06T06:42:37;101882.72;;;18.31;93.55
3142;BME280;1581;51.568;6.998;2022-07-06T06:45:06;101875.03;;;18.22;94.99
3142;BME280;1581;51.568;6.998;2022-07-06T06:47:34;101878.06;;;18.64;93.68
3142;BME280;1581;51.568;6.998;2022-07-06T06:50:02;101877.53;;;17.98;94.73
3142;BME280;1581;51.568;6.998;2022-07-06T06:52:29;101882.69;;;18.44;95.08
3142;BME280;1581;51.568;6.998;2022-07-06T06:54:57;101881.88;;;18.12;94.89
3142;BME280;1581;51.568;6.998;2022-07-06T06:57:25;101884.75;;;18.49;92.79
3142;BME280;1581;51.568;6.998;2022-07-06T06:59:57;101890.59;;;18.20;94.87
3142;BME280;1581;51.568;6.998;2022-07-06T07:02:24;101890.81;;;18.12;92.40
3142;BME280;1581;51.568;6.998;2022-07-06T07:04:52;101898.47;;;18.41;92.83
3142;BME280;1581;51.568;6.998;2022-07-06T07:07:20;101897.53;;;18.73;90.19
3142;BME280;1581;51.568;6.998;2022-07-06T07:09:47;101896.25;;;18.82;88.33
3142;BME280;1581;51.568;6.998;2022-07-06T07:12:15;101903.31;;;18.83;87.69
3142;BME280;1581;51.568;6.998;2022-07-06T07:14:43;101898.84;;;19.14;87.76
3142;BME280;1581;51.568;6.998;2022-07-06T07:17:12;101900.09;;;19.05;87.38
3142;BME280;1581;51.568;6.998;2022-07-06T07:19:40;101898.94;;;18.82;88.30
3142;BME280;1581;51.568;6.998;2022-07-06T07:22:08;101902.34;;;19.14;87.72
3142;BME280;1581;51.568;6.998;2022-07-06T07:24:35;101905.97;;;19.39;87.49
3142;BME280;1581;51.568;6.998;2022-07-06T07:27:04;101914.34;;;18.75;89.59
3142;BME280;1581;51.568;6.998;2022-07-06T07:29:32;101902.44;;;18.95;88.04
3142;BME280;1581;51.568;6.998;2022-07-06T07:32:00;101906.19;;;18.05;88.58
3142;BME280;1581;51.568;6.998;2022-07-06T07:34:29;101898.31;;;18.10;90.74
3142;BME280;1581;51.568;6.998;2022-07-06T07:36:57;101896.81;;;18.14;89.63
3142;BME280;1581;51.568;6.998;2022-07-06T07:39:24;101905.56;;;17.90;89.87
3142;BME280;1581;51.568;6.998;2022-07-06T07:41:52;101908.84;;;18.44;87.36
3142;BME280;1581;51.568;6.998;2022-07-06T07:44:19;101907.28;;;18.74;86.37
3142;BME280;1581;51.568;6.998;2022-07-06T07:46:47;101909.19;;;18.67;85.97
3142;BME280;1581;51.568;6.998;2022-07-06T07:49:14;101907.53;;;18.66;87.47
3142;BME280;1581;51.568;6.998;2022-07-06T07:51:43;101904.03;;;19.15;84.70
3142;BME280;1581;51.568;6.998;2022-07-06T07:54:13;101905.34;;;18.94;83.83
3142;BME280;1581;51.568;6.998;2022-07-06T07:56:41;101906.91;;;18.64;85.26
3142;BME280;1581;51.568;6.998;2022-07-06T07:59:09;101911.09;;;18.53;84.43
3142;BME280;1581;51.568;6.998;2022-07-06T08:01:38;101919.97;;;19.23;83.24
3142;BME280;1581;51.568;6.998;2022-07-06T08:04:06;101911.50;;;19.13;81.61
3142;BME280;1581;51.568;6.998;2022-07-06T08:06:33;101897.19;;;19.06;81.89
3142;BME280;1581;51.568;6.998;2022-07-06T08:09:03;101906.84;;;19.58;82.14
3142;BME280;1581;51.568;6.998;2022-07-06T08:11:34;101903.44;;;19.99;77.38
3142;BME280;1581;51.568;6.998;2022-07-06T08:14:02;101914.63;;;20.27;78.01
3142;BME280;1581;51.568;6.998;2022-07-06T08:16:30;101917.13;;;20.65;76.34
3142;BME280;1581;51.568;6.998;2022-07-06T08:18:57;101917.56;;;20.86;76.13
3142;BME280;1581;51.568;6.998;2022-07-06T08:21:26;101908.31;;;20.69;74.67
3142;BME280;1581;51.568;6.998;2022-07-06T08:23:55;101908.34;;;21.05;74.02
3142;BME280;1581;51.568;6.998;2022-07-06T08:26:24;101905.22;;;21.01;73.18
3142;BME280;1581;51.568;6.998;2022-07-06T08:28:52;101920.22;;;20.68;74.58
3142;BME280;1581;51.568;6.998;2022-07-06T08:31:19;101908.69;;;20.73;74.78
3142;BME280;1581;51.568;6.998;2022-07-06T08:33:47;101912.72;;;20.10;75.67
3142;BME280;1581;51.568;6.998;2022-07-06T08:36:15;101908.66;;;19.94;75.51
3142;BME280;1581;51.568;6.998;2022-07-06T08:38:43;101912.09;;;20.08;77.09
3142;BME280;1581;51.568;6.998;2022-07-06T08:41:10;101913.50;;;19.86;71.92
3142;BME280;1581;51.568;6.998;2022-07-06T08:43:40;101907.34;;;19.79;74.47
3142;BME280;1581;51.568;6.998;2022-07-06T08:46:08;101911.06;;;20.09;74.39
3142;BME280;1581;51.568;6.998;2022-07-06T08:48:37;101906.38;;;20.58;73.59
3142;BME280;1581;51.568;6.998;2022-07-06T08:51:05;101906.00;;;20.37;73.53
3142;BME280;1581;51.568;6.998;2022-07-06T08:53:34;101896.94;;;19.76;76.36
3142;BME280;1581;51.568;6.998;2022-07-06T08:56:02;101907.75;;;20.07;73.25
3142;BME280;1581;51.568;6.998;2022-07-06T08:58:29;101908.22;;;20.82;73.48
3142;BME280;1581;51.568;6.998;2022-07-06T09:01:00;101911.66;;;20.53;72.17
3142;BME280;1581;51.568;6.998;2022-07-06T09:03:28;101910.78;;;20.17;70.89
3142;BME280;1581;51.568;6.998;2022-07-06T09:06:00;101911.75;;;20.22;69.36
3142;BME280;1581;51.568;6.998;2022-07-06T09:08:31;101907.97;;;19.50;74.91
3142;BME280;1581;51.568;6.998;2022-07-06T09:10:59;101909.97;;;19.30;76.89
3142;BME280;1581;51.568;6.998;2022-07-06T09:13:27;101911.34;;;19.46;76.37
3142;BME280;1581;51.568;6.998;2022-07-06T09:15:54;101907.88;;;18.89;77.54
3142;BME280;1581;51.568;6.998;2022-07-06T09:18:23;101902.44;;;18.95;80.07
3142;BME280;1581;51.568;6.998;2022-07-06T09:20:51;101904.94;;;18.90;79.71
3142;BME280;1581;51.568;6.998;2022-07-06T09:23:18;101895.56;;;18.93;79.85
3142;BME280;1581;51.568;6.998;2022-07-06T09:25:48;101907.00;;;20.00;78.23
3142;BME280;1581;51.568;6.998;2022-07-06T09:28:17;101902.41;;;20.79;73.25
3142;BME280;1581;51.568;6.998;2022-07-06T09:30:44;101901.84;;;20.34;70.84
3142;BME280;1581;51.568;6.998;2022-07-06T09:33:17;101906.22;;;20.35;72.13
3142;BME280;1581;51.568;6.998;2022-07-06T09:35:46;101899.91;;;19.99;73.63
3142;BME280;1581;51.568;6.998;2022-07-06T09:38:15;101895.84;;;20.68;74.00
3142;BME280;1581;51.568;6.998;2022-07-06T09:40:45;101909.75;;;20.36;68.77
3142;BME280;1581;51.568;6.998;2022-07-06T09:43:16;101892.31;;;20.07;71.53
3142;BME280;1581;51.568;6.998;2022-07-06T09:45:47;101901.69;;;20.47;70.88
3142;BME280;1581;51.568;6.998;2022-07-06T09:48:18;101895.84;;;19.84;73.27
3142;BME280;1581;51.568;6.998;2022-07-06T09:50:52;101897.56;;;20.45;73.17
3142;BME280;1581;51.568;6.998;2022-07-06T09:53:21;101904.72;;;20.57;69.15
3142;BME280;1581;51.568;6.998;2022-07-06T09:55:52;101903.72;;;20.52;67.06
3142;BME280;1581;51.568;6.998;2022-07-06T09:58:21;101909.66;;;20.24;69.07
3142;BME280;1581;51.568;6.998;2022-07-06T10:00:50;101901.28;;;20.08;73.10
3142;BME280;1581;51.568;6.998;2022-07-06T10:03:19;101907.66;;;20.38;70.77
3142;BME280;1581;51.568;6.998;2022-07-06T10:05:48;101905.00;;;20.67;70.82
3142;BME280;1581;51.568;6.998;2022-07-06T10:08:17;101899.53;;;20.91;67.63
3142;BME280;1581;51.568;6.998;2022-07-06T10:10:44;101889.97;;;21.88;66.11
3142;BME280;1581;51.568;6.998;2022-07-06T10:13:15;101902.50;;;22.47;63.84
3142;BME280;1581;51.568;6.998;2022-07-06T10:15:47;101902.97;;;22.44;61.70
3142;BME280;1581;51.568;6.998;2022-07-06T10:18:15;101894.69;;;21.70;60.56
3142;BME280;1581;51.568;6.998;2022-07-06T10:20:43;101897.59;;;21.57;60.80
3142;BME280;1581;51.568;6.998;2022-07-06T10:23:13;101891.97;;;21.81;64.51
3142;BME280;1581;51.568;6.998;2022-07-06T10:25:42;101892.66;;;22.68;56.91
3142;BME280;1581;51.568;6.998;2022-07-06T10:28:12;101901.56;;;22.07;54.65
3142;BME280;1581;51.568;6.998;2022-07-06T10:30:42;101894.53;;;21.65;57.74
3142;BME280;1581;51.568;6.998;2022-07-06T10:33:11;101894.63;;;21.59;60.98
3142;BME280;1581;51.568;6.998;2022-07-06T10:35:41;101895.22;;;21.61;62.19
3142;BME280;1581;51.568;6.998;2022-07-06T10:38:12;101892.69;;;22.57;61.05
3142;BME280;1581;51.568;6.998;2022-07-06T10:40:41;101898.25;;;22.05;59.57
3142;BME280;1581;51.568;6.998;2022-07-06T10:43:33;101889.88;;;22.91;55.10
3142;BME280;1581;51.568;6.998;2022-07-06T10:46:07;101896.94;;;22.30;53.36
3142;BME280;1581;51.568;6.998;2022-07-06T10:48:35;101892.31;;;23.60;52.23
3142;BME280;1581;51.568;6.998;2022-07-06T10:51:03;101881.28;;;23.99;47.81
3142;BME280;1581;51.568;6.998;2022-07-06T10:53:36;101877.81;;;23.87;48.42
3142;BME280;1581;51.568;6.998;2022-07-06T10:56:06;101888.03;;;23.20;49.98
3142;BME280;1581;51.568;6.998;2022-07-06T10:58:54;101888.19;;;22.62;53.32
3142;BME280;1581;51.568;6.998;2022-07-06T11:01:22;101891.44;;;21.32;54.43
3142;BME280;1581;51.568;6.998;2022-07-06T11:04:07;101890.69;;;22.30;55.80
3142;BME280;1581;51.568;6.998;2022-07-06T11:06:37;101887.59;;;21.69;59.47
3142;BME280;1581;51.568;6.998;2022-07-06T11:09:10;101885.75;;;22.15;56.07
3142;BME280;1581;51.568;6.998;2022-07-06T11:11:44;101898.22;;;23.41;53.11
3142;BME280;1581;51.568;6.998;2022-07-06T11:14:16;101887.75;;;27.94;40.71
3142;BME280;1581;51.568;6.998;2022-07-06T11:17:03;101901.16;;;29.57;36.21
3142;BME280;1581;51.568;6.998;2022-07-06T11:19:31;101900.81;;;30.30;34.79
3142;BME280;1581;51.568;6.998;2022-07-06T11:22:06;101894.63;;;26.96;41.99
3142;BME280;1581;51.568;6.998;2022-07-06T11:24:38;101890.72;;;25.58;41.68
3142;BME280;1581;51.568;6.998;2022-07-06T11:27:07;101884.47;;;25.94;44.82
3142;BME280;1581;51.568;6.998;2022-07-06T11:29:35;101891.78;;;26.19;41.03
3142;BME280;1581;51.568;6.998;2022-07-06T11:32:06;101882.72;;;26.14;42.92
3142;BME280;1581;51.568;6.998;2022-07-06T11:34:41;101881.47;;;25.32;45.77
3142;BME280;1581;51.568;6.998;2022-07-06T11:37:10;101877.34;;;24.66;47.59
3142;BME280;1581;51.568;6.998;2022-07-06T11:39:41;101877.66;;;26.84;43.23
3142;BME280;1581;51.568;6.998;2022-07-06T11:42:11;101870.22;;;26.69;38.82
3142;BME280;1581;51.568;6.998;2022-07-06T11:44:40;101874.00;;;26.58;40.29
3142;BME280;1581;51.568;6.998;2022-07-06T11:47:10;101868.25;;;27.36;40.80
3142;BME280;1581;51.568;6.998;2022-07-06T11:49:41;101864.13;;;25.48;39.94
3142;BME280;1581;51.568;6.998;2022-07-06T11:52:12;101873.06;;;25.39;41.06
3142;BME280;1581;51.568;6.998;2022-07-06T11:54:42;101868.72;;;25.43;41.82
3142;BME280;1581;51.568;6.998;2022-07-06T11:57:11;101867.72;;;25.54;43.21
3142;BME280;1581;51.568;6.998;2022-07-06T11:59:41;101873.34;;;24.14;45.76
3142;BME280;1581;51.568;6.998;2022-07-06T12:02:14;101868.00;;;24.78;45.46
3142;BME280;1581;51.568;6.998;2022-07-06T12:04:44;101858.88;;;25.42;43.46
3142;BME280;1581;51.568;6.998;2022-07-06T12:07:15;101864.41;;;28.01;39.10
3142;BME280;1581;51.568;6.998;2022-07-06T12:09:46;101874.06;;;31.42;34.96
3142;BME280;1581;51.568;6.998;2022-07-06T12:12:15;101871.00;;;31.25;32.21
3142;BME280;1581;51.568;6.998;2022-07-06T12:14:44;101870.03;;;31.53;32.04
3142;BME280;1581;51.568;6.998;2022-07-06T12:17:13;101868.44;;;32.56;31.39
3142;BME280;1581;51.568;6.998;2022-07-06T12:19:42;101863.72;;;34.11;29.09
3142;BME280;1581;51.568;6.998;2022-07-06T12:22:11;101868.16;;;33.33;28.46
3142;BME280;1581;51.568;6.998;2022-07-06T12:24:44;101873.25;;;34.66;27.56
3142;BME280;1581;51.568;6.998;2022-07-06T12:27:15;101869.34;;;34.06;27.93
3142;BME280;1581;51.568;6.998;2022-07-06T12:29:44;101867.31;;;33.68;28.65
3142;BME280;1581;51.568;6.998;2022-07-06T12:32:16;101863.53;;;34.94;27.40
3142;BME280;1581;51.568;6.998;2022-07-06T12:34:45;101868.34;;;32.88;28.09
3142;BME280;1581;51.568;6.998;2022-07-06T12:37:14;101844.75;;;32.68;26.96
3142;BME280;1581;51.568;6.998;2022-07-06T12:39:46;101842.34;;;33.81;25.19
3142;BME280;1581;51.568;6.998;2022-07-06T12:42:15;101836.13;;;32.43;27.29
3142;BME280;1581;51.568;6.998;2022-07-06T12:44:45;101824.19;;;29.90;31.78
3142;BME280;1581;51.568;6.998;2022-07-06T12:47:17;101814.22;;;25.84;37.93
3142;BME280;1581;51.568;6.998;2022-07-06T12:49:44;101829.53;;;29.05;35.66
3142;BME280;1581;51.568;6.998;2022-07-06T12:52:14;101827.22;;;30.87;30.48
3142;BME280;1581;51.568;6.998;2022-07-06T12:54:47;101839.28;;;32.50;29.37
3142;BME280;1581;51.568;6.998;2022-07-06T12:57:17;101833.03;;;34.77;26.23
3142;BME280;1581;51.568;6.998;2022-07-06T12:59:47;101844.41;;;32.43;28.93
3142;BME280;1581;51.568;6.998;2022-07-06T13:02:23;101844.22;;;38.64;22.89
3142;BME280;1581;51.568;6.998;2022-07-06T13:04:56;101849.78;;;41.58;20.20
3142;BME280;1581;51.568;6.998;2022-07-06T13:07:25;101815.13;;;33.75;25.16
3142;BME280;1581;51.568;6.998;2022-07-06T13:09:55;101811.03;;;31.54;28.94
3142;BME280;1581;51.568;6.998;2022-07-06T13:12:23;101820.34;;;35.60;24.15
3142;BME280;1581;51.568;6.998;2022-07-06T13:14:51;101804.84;;;35.59;24.72